createdAt,value
2019-02-19T00:02:16.215Z,10.57
2019-02-19T00:04:53.709Z,10.20
2019-02-19T00:07:31.227Z,10.03
2019-02-19T00:10:12.038Z,10.83
2019-02-19T00:12:49.539Z,10.97
2019-02-19T00:15:27.035Z,10.13
2019-02-19T00:18:04.584Z,10.30
2019-02-19T00:20:42.189Z,10.43
2019-02-19T00:23:19.688Z,10.67
2019-02-19T00:25:57.189Z,10.10
2019-02-19T00:28:34.700Z,11.47
2019-02-19T00:31:18.829Z,10.37
2019-02-19T00:33:56.348Z,10.80
2019-02-19T00:36:33.834Z,10.43
2019-02-19T00:39:11.669Z,11.07
2019-02-19T00:41:49.107Z,11.00
2019-02-19T00:44:26.607Z,11.13
2019-02-19T00:47:04.120Z,10.77
2019-02-19T00:49:44.872Z,10.67
2019-02-19T00:52:22.349Z,10.93
2019-02-19T00:54:59.846Z,11.13
2019-02-19T00:57:37.388Z,10.73
2019-02-19T01:00:19.063Z,11.03
2019-02-19T01:02:56.582Z,10.90
2019-02-19T01:05:34.067Z,11.60
2019-02-19T01:08:11.591Z,11.20
2019-02-19T01:10:49.166Z,11.57
2019-02-19T01:13:26.719Z,12.10
2019-02-19T01:16:04.213Z,11.40
2019-02-19T01:18:41.701Z,11.03
2019-02-19T01:21:29.083Z,10.47
2019-02-19T01:24:06.579Z,11.27
2019-02-19T01:26:44.085Z,10.60
2019-02-19T01:29:21.665Z,11.20
2019-02-19T01:31:59.159Z,11.87
2019-02-19T01:34:36.675Z,11.53
2019-02-19T01:37:14.164Z,11.30
2019-02-19T01:39:51.772Z,11.33
2019-02-19T01:42:29.255Z,11.40
2019-02-19T01:45:06.866Z,10.73
2019-02-19T01:47:44.356Z,12.03
2019-02-19T01:50:23.976Z,12.37
2019-02-19T01:53:01.490Z,11.23
2019-02-19T01:55:39.008Z,11.87
2019-02-19T01:58:16.511Z,12.50
2019-02-19T02:00:54.099Z,11.97
2019-02-19T02:03:31.627Z,11.63
2019-02-19T02:06:09.112Z,12.77
2019-02-19T02:08:46.632Z,12.33
2019-02-19T02:11:24.137Z,11.87
2019-02-19T02:14:01.647Z,12.00
2019-02-19T02:16:39.153Z,12.37
2019-02-19T02:19:16.785Z,12.90
2019-02-19T02:21:54.271Z,11.60
2019-02-19T02:24:31.773Z,11.87
2019-02-19T02:27:09.256Z,11.97
2019-02-19T02:29:54.827Z,11.83
2019-02-19T02:32:32.338Z,11.83
2019-02-19T02:35:11.388Z,11.83
2019-02-19T02:37:47.320Z,11.63
2019-02-19T02:40:29.047Z,11.77
2019-02-19T02:43:06.544Z,12.17
2019-02-19T02:45:52.899Z,10.43
2019-02-19T02:48:21.541Z,10.43
2019-02-19T02:50:59.149Z,12.43
2019-02-19T02:53:36.661Z,11.07
2019-02-19T02:56:14.924Z,11.87
2019-02-19T02:58:52.555Z,12.37
2019-02-19T03:01:30.048Z,12.07
2019-02-19T03:04:07.547Z,12.37
2019-02-19T03:07:23.086Z,11.27
2019-02-19T03:10:01.018Z,11.07
2019-02-19T03:12:38.504Z,12.13
2019-02-19T03:15:16.016Z,11.50
2019-02-19T03:17:53.515Z,11.47
2019-02-19T03:20:31.098Z,12.30
2019-02-19T03:23:08.594Z,11.30
2019-02-19T03:25:46.094Z,10.73
2019-02-19T03:28:23.614Z,11.97
2019-02-19T03:31:01.133Z,11.27
2019-02-19T03:33:38.617Z,10.47
2019-02-19T03:36:16.110Z,14.30
2019-02-19T03:38:53.731Z,11.87
2019-02-19T03:41:31.271Z,12.23
2019-02-19T03:44:08.767Z,12.70
2019-02-19T03:46:46.257Z,12.67
2019-02-19T03:49:27.071Z,12.23
2019-02-19T03:52:04.581Z,13.07
2019-02-19T03:54:42.097Z,13.23
2019-02-19T03:57:19.584Z,12.70
2019-02-19T03:59:59.409Z,13.03
2019-02-19T04:02:36.911Z,13.10
2019-02-19T04:05:14.406Z,12.97
2019-02-19T04:07:51.889Z,13.90
2019-02-19T04:10:39.581Z,13.33
2019-02-19T04:13:17.079Z,11.97
2019-02-19T04:15:54.594Z,13.07
2019-02-19T04:18:45.379Z,11.80
2019-02-19T04:21:22.890Z,11.50
2019-02-19T04:24:00.371Z,11.47
2019-02-19T04:26:37.877Z,12.40
2019-02-19T04:29:29.177Z,12.17
2019-02-19T04:32:06.667Z,11.80
2019-02-19T04:34:44.175Z,12.57
2019-02-19T04:37:21.667Z,12.37
2019-02-19T04:40:03.933Z,13.23
2019-02-19T04:42:41.414Z,12.23
2019-02-19T04:45:18.927Z,13.10
2019-02-19T04:47:56.409Z,12.40
2019-02-19T04:51:20.660Z,13.73
2019-02-19T04:53:58.153Z,12.73
2019-02-19T04:56:35.665Z,13.47
2019-02-19T04:59:13.279Z,13.00
2019-02-19T05:01:50.769Z,12.67
2019-02-19T05:04:28.256Z,12.40
2019-02-19T05:07:05.754Z,12.30
2019-02-19T05:09:43.382Z,11.37
2019-02-19T05:12:20.879Z,13.03
2019-02-19T05:14:58.373Z,11.80
2019-02-19T05:17:35.881Z,11.73
2019-02-19T05:20:16.623Z,12.13
2019-02-19T05:22:54.138Z,13.17
2019-02-19T05:25:33.183Z,11.83
2019-02-19T05:28:10.784Z,12.93
2019-02-19T05:30:48.291Z,11.87
2019-02-19T05:33:25.776Z,12.70
2019-02-19T05:36:03.269Z,12.83
2019-02-19T05:38:40.861Z,13.23
2019-02-19T05:41:18.386Z,11.77
2019-02-19T05:43:55.872Z,12.17
2019-02-19T05:46:33.487Z,11.33
2019-02-19T05:49:17.499Z,11.90
2019-02-19T05:51:55.033Z,11.93
2019-02-19T05:54:32.510Z,12.57
2019-02-19T05:57:10.053Z,11.47
2019-02-19T05:59:47.647Z,12.43
2019-02-19T06:02:25.156Z,11.80
2019-02-19T06:05:02.646Z,12.57
2019-02-19T06:07:40.157Z,11.83
2019-02-19T06:10:21.205Z,11.33
2019-02-19T06:12:58.738Z,11.97
2019-02-19T06:15:36.249Z,11.30
2019-02-19T06:18:20.469Z,11.20
2019-02-19T06:20:57.949Z,10.97
2019-02-19T06:23:35.453Z,11.40
2019-02-19T06:26:12.937Z,12.47
2019-02-19T06:29:30.780Z,15.67
2019-02-19T06:32:08.316Z,11.07
2019-02-19T06:34:45.820Z,11.73
2019-02-19T06:37:23.317Z,11.33
2019-02-19T06:40:00.966Z,12.57
2019-02-19T06:42:38.495Z,11.30
2019-02-19T06:45:15.991Z,10.90
2019-02-19T06:47:54.553Z,11.47
2019-02-19T06:50:32.026Z,11.57
2019-02-19T06:53:09.559Z,12.77
2019-02-19T06:55:47.045Z,13.63
2019-02-19T06:58:27.891Z,16.10
2019-02-19T07:01:05.390Z,15.93
2019-02-19T07:03:54.722Z,18.50
2019-02-19T07:06:32.225Z,17.83
2019-02-19T07:09:09.899Z,23.17
2019-02-19T07:11:47.418Z,21.33
2019-02-19T07:14:24.925Z,20.37
2019-02-19T07:17:02.415Z,15.13
2019-02-19T07:19:46.338Z,12.23
2019-02-19T07:22:23.826Z,10.77
2019-02-19T07:25:01.329Z,10.97
2019-02-19T07:27:38.909Z,11.03
2019-02-19T07:30:16.397Z,10.13
2019-02-19T07:32:53.899Z,10.90
2019-02-19T07:35:31.394Z,11.60
2019-02-19T07:38:08.996Z,11.10
2019-02-19T07:40:46.506Z,11.57
2019-02-19T07:43:24.005Z,11.63
2019-02-19T07:46:01.501Z,10.83
2019-02-19T07:48:45.218Z,10.50
2019-02-19T07:51:22.705Z,10.77
2019-02-19T07:54:00.264Z,10.40
2019-02-19T07:56:37.748Z,11.20
2019-02-19T07:59:15.383Z,10.67
2019-02-19T08:01:52.870Z,10.80
2019-02-19T08:04:30.407Z,10.30
2019-02-19T08:07:07.998Z,11.17
2019-02-19T08:09:55.383Z,9.93
2019-02-19T08:12:32.880Z,10.63
2019-02-19T08:15:10.717Z,11.47
2019-02-19T08:17:54.499Z,9.20
2019-02-19T08:20:31.987Z,9.20
2019-02-19T08:23:09.495Z,9.10
2019-02-19T08:25:47.005Z,8.77
2019-02-19T08:28:24.558Z,8.73
2019-02-19T08:31:02.075Z,9.27
2019-02-19T08:33:39.574Z,8.23
2019-02-19T08:36:17.070Z,7.93
2019-02-19T08:39:05.029Z,8.00
2019-02-19T08:41:42.574Z,8.23
2019-02-19T08:44:20.081Z,7.77
2019-02-19T08:46:57.569Z,7.67
2019-02-19T08:49:41.311Z,7.57
2019-02-19T08:52:20.826Z,8.10
2019-02-19T08:54:58.341Z,8.10
2019-02-19T08:57:39.162Z,8.23
2019-02-19T09:00:16.666Z,8.90
2019-02-19T09:02:54.151Z,9.63
2019-02-19T09:05:31.670Z,10.80
2019-02-19T09:08:13.343Z,12.40
2019-02-19T09:10:50.854Z,13.13
2019-02-19T09:13:28.335Z,13.70
2019-02-19T09:16:05.841Z,13.67
2019-02-19T09:18:43.407Z,13.53
2019-02-19T09:21:20.930Z,11.80
2019-02-19T09:23:58.587Z,11.50
2019-02-19T09:26:35.917Z,10.23
2019-02-19T09:29:16.782Z,9.83
2019-02-19T09:31:54.310Z,8.43
2019-02-19T09:34:31.834Z,8.23
2019-02-19T09:37:09.427Z,8.33
2019-02-19T09:39:46.956Z,8.30
2019-02-19T09:42:24.455Z,8.70
2019-02-19T09:45:01.972Z,8.53
2019-02-19T09:47:45.646Z,8.13
2019-02-19T09:50:23.150Z,9.00
2019-02-19T09:53:00.663Z,8.67
2019-02-19T09:55:38.170Z,8.43
2019-02-19T09:58:21.954Z,8.73
2019-02-19T10:00:59.513Z,8.50
2019-02-19T10:03:36.993Z,9.03
2019-02-19T10:06:14.502Z,9.87
2019-02-19T10:08:59.097Z,9.47
2019-02-19T10:11:36.617Z,9.13
2019-02-19T10:14:14.121Z,8.80
2019-02-19T10:16:51.672Z,9.63
2019-02-19T10:19:29.172Z,8.27
2019-02-19T10:22:06.669Z,8.80
2019-02-19T10:24:44.163Z,8.47
2019-02-19T10:27:23.694Z,8.53
2019-02-19T10:30:01.236Z,8.60
2019-02-19T10:32:38.741Z,8.53
2019-02-19T10:35:16.258Z,8.73
2019-02-19T10:37:57.033Z,9.63
2019-02-19T10:40:34.551Z,8.97
2019-02-19T10:43:12.042Z,9.10
2019-02-19T10:45:49.550Z,9.23
2019-02-19T10:48:30.390Z,9.30
2019-02-19T10:51:07.911Z,9.23
2019-02-19T10:53:45.426Z,9.40
2019-02-19T10:56:22.932Z,9.47
2019-02-19T10:59:03.622Z,10.47
2019-02-19T11:01:41.135Z,9.60
2019-02-19T11:04:18.622Z,10.30
2019-02-19T11:07:03.269Z,10.70
2019-02-19T11:09:40.736Z,10.87
2019-02-19T11:12:18.249Z,11.17
2019-02-19T11:14:55.745Z,10.53
2019-02-19T11:17:35.010Z,10.50
2019-02-19T11:20:13.982Z,11.27
2019-02-19T11:22:51.498Z,11.23
2019-02-19T11:25:28.995Z,10.63
2019-02-19T11:28:09.639Z,10.60
2019-02-19T11:30:47.155Z,9.83
2019-02-19T11:33:24.651Z,10.67
2019-02-19T11:36:02.170Z,9.50
2019-02-19T11:38:42.901Z,10.47
2019-02-19T11:41:20.430Z,10.10
2019-02-19T11:43:57.910Z,11.10
2019-02-19T11:46:35.483Z,10.33
2019-02-19T11:49:12.991Z,10.87
2019-02-19T11:51:50.518Z,10.73
2019-02-19T11:54:28.011Z,10.07
2019-02-19T11:57:05.658Z,10.70
2019-02-19T11:59:43.136Z,10.93
2019-02-19T12:02:20.662Z,10.93
2019-02-19T12:04:58.171Z,10.77
2019-02-19T12:07:45.633Z,11.07
2019-02-19T12:10:23.128Z,10.50
2019-02-19T12:13:00.640Z,11.10
2019-02-19T12:15:38.121Z,12.20
2019-02-19T12:18:18.903Z,11.57
2019-02-19T12:20:56.442Z,11.37
2019-02-19T12:23:33.927Z,11.80
2019-02-19T12:26:11.452Z,12.00
2019-02-19T12:29:01.940Z,11.50
2019-02-19T12:31:39.445Z,12.30
2019-02-19T12:34:16.920Z,11.67
2019-02-19T12:36:54.515Z,11.60
2019-02-19T12:39:32.025Z,11.80
2019-02-19T12:42:09.557Z,12.27
2019-02-19T12:44:47.030Z,12.23
2019-02-19T12:47:37.823Z,11.33
2019-02-19T12:50:16.064Z,11.70
2019-02-19T12:52:53.587Z,11.63
2019-02-19T12:55:31.105Z,11.60
2019-02-19T12:58:21.487Z,11.10
2019-02-19T13:00:58.991Z,12.27
2019-02-19T13:03:36.531Z,11.37
2019-02-19T13:06:14.048Z,11.17
2019-02-19T13:08:51.539Z,11.20
2019-02-19T13:11:29.042Z,11.27
2019-02-19T13:14:06.519Z,11.20
2019-02-19T13:16:44.154Z,10.83
2019-02-19T13:19:21.645Z,10.97
2019-02-19T13:21:59.153Z,10.93
2019-02-19T13:24:36.639Z,12.07
2019-02-19T13:27:24.558Z,11.13
2019-02-19T13:30:02.092Z,11.20
2019-02-19T13:32:39.587Z,11.47
2019-02-19T13:35:17.084Z,11.43
2019-02-19T13:38:19.929Z,11.37
2019-02-19T13:40:57.445Z,11.40
2019-02-19T13:43:34.962Z,11.00
2019-02-19T13:46:12.570Z,11.07
2019-02-19T13:48:50.067Z,10.77
2019-02-19T13:51:27.576Z,11.10
2019-02-19T13:54:09.622Z,10.30
2019-02-19T13:56:50.637Z,11.80
2019-02-19T13:59:28.115Z,10.70
2019-02-19T14:02:05.605Z,9.70
2019-02-19T14:04:43.094Z,9.77
2019-02-19T14:07:27.268Z,10.40
2019-02-19T14:10:04.800Z,9.90
2019-02-19T14:12:42.307Z,9.83
2019-02-19T14:15:38.303Z,9.77
2019-02-19T14:18:23.120Z,10.37
2019-02-19T14:21:22.249Z,10.80
2019-02-19T14:24:18.400Z,11.07
2019-02-19T14:27:21.613Z,9.93
2019-02-19T14:30:17.695Z,10.93
2019-02-19T14:33:16.253Z,11.10
2019-02-19T14:36:12.341Z,11.23
2019-02-19T14:39:08.515Z,11.17
2019-02-19T14:42:07.727Z,11.20
2019-02-19T14:44:58.689Z,11.87
2019-02-19T14:48:04.873Z,12.60
2019-02-19T14:50:53.304Z,11.97
2019-02-19T14:53:55.470Z,12.10
2019-02-19T14:56:59.196Z,11.57
2019-02-19T14:59:56.867Z,11.83
2019-02-19T15:02:59.213Z,12.77
2019-02-19T15:06:07.479Z,11.70
2019-02-19T15:09:13.695Z,12.67
2019-02-19T15:12:09.823Z,11.00
2019-02-19T15:15:05.950Z,11.67
2019-02-19T15:18:02.301Z,11.87
2019-02-19T15:20:58.398Z,11.30
2019-02-19T15:23:48.938Z,12.13
2019-02-19T15:26:51.689Z,12.60
2019-02-19T15:30:01.303Z,12.03
2019-02-19T15:33:04.880Z,12.23
2019-02-19T15:35:56.981Z,11.73
2019-02-19T15:38:57.938Z,12.03
2019-02-19T15:41:54.046Z,12.40
2019-02-19T15:44:44.970Z,12.33
2019-02-19T15:47:41.222Z,11.20
2019-02-19T15:50:56.967Z,12.10
2019-02-19T15:53:42.383Z,12.07
2019-02-19T15:56:44.611Z,11.37
2019-02-19T16:00:00.713Z,12.50
2019-02-19T16:03:02.494Z,11.90
2019-02-19T16:06:05.872Z,12.30
2019-02-19T16:09:02.229Z,12.60
2019-02-19T16:11:46.044Z,12.53
2019-02-19T16:14:40.658Z,13.23
2019-02-19T16:17:40.500Z,12.67
2019-02-19T16:20:36.585Z,12.70
2019-02-19T16:23:32.735Z,11.80
2019-02-19T16:26:41.795Z,12.70
2019-02-19T16:29:37.601Z,13.07
2019-02-19T16:32:23.543Z,12.07
2019-02-19T16:35:19.700Z,11.80
2019-02-19T16:38:15.491Z,12.53
2019-02-19T16:41:01.590Z,12.57
2019-02-19T16:44:06.571Z,11.67
2019-02-19T16:47:21.011Z,12.60
2019-02-19T16:50:08.291Z,13.30
2019-02-19T16:52:55.436Z,12.67
2019-02-19T16:56:03.547Z,11.80
2019-02-19T16:58:50.067Z,12.80
2019-02-19T17:01:46.201Z,12.33
2019-02-19T17:04:29.505Z,12.90
2019-02-19T17:07:18.542Z,12.30
2019-02-19T17:10:10.115Z,12.17
2019-02-19T17:13:15.854Z,12.63
2019-02-19T17:16:11.157Z,11.30
2019-02-19T17:19:11.389Z,12.40
2019-02-19T17:21:54.818Z,12.93
2019-02-19T17:24:50.984Z,14.27
2019-02-19T17:27:40.589Z,14.40
2019-02-19T17:30:39.663Z,13.60
2019-02-19T17:33:45.570Z,14.47
2019-02-19T17:36:48.459Z,13.20
2019-02-19T17:39:44.634Z,13.00
2019-02-19T17:42:47.039Z,13.30
2019-02-19T17:46:15.056Z,14.37
2019-02-19T17:49:17.603Z,12.23
2019-02-19T17:52:19.616Z,12.77
2019-02-19T17:55:08.562Z,13.40
2019-02-19T17:58:11.642Z,14.17
2019-02-19T18:00:59.259Z,15.17
2019-02-19T18:03:55.422Z,16.43
2019-02-19T18:07:10.632Z,16.20
2019-02-19T18:10:23.100Z,16.03
2019-02-19T18:13:08.951Z,16.57
2019-02-19T18:16:05.188Z,16.23
2019-02-19T18:18:49.896Z,14.70
2019-02-19T18:21:27.410Z,14.90
2019-02-19T18:24:04.921Z,14.30
2019-02-19T18:26:42.412Z,14.00
2019-02-19T18:29:19.937Z,15.03
2019-02-19T18:31:57.453Z,13.93
2019-02-19T18:34:34.965Z,13.57
2019-02-19T18:37:15.777Z,14.00
2019-02-19T18:39:53.296Z,12.90
2019-02-19T18:42:30.804Z,14.53
2019-02-19T18:45:18.410Z,12.70
2019-02-19T18:47:55.893Z,13.30
2019-02-19T18:50:33.407Z,13.20
2019-02-19T18:53:10.917Z,14.10
2019-02-19T18:55:54.818Z,14.33
2019-02-19T18:58:32.323Z,15.10
2019-02-19T19:01:09.845Z,16.07
2019-02-19T19:03:47.345Z,19.83
2019-02-19T19:06:25.909Z,26.23
2019-02-19T19:09:03.989Z,25.87
2019-02-19T19:11:44.743Z,23.70
2019-02-19T19:14:22.249Z,19.87
2019-02-19T19:17:00.092Z,18.80
2019-02-19T19:19:37.614Z,16.93
2019-02-19T19:22:15.323Z,17.63
2019-02-19T19:24:52.972Z,17.90
2019-02-19T19:27:30.483Z,17.70
2019-02-19T19:30:08.928Z,15.13
2019-02-19T19:32:46.486Z,15.90
2019-02-19T19:35:56.180Z,15.10
2019-02-19T19:38:33.625Z,15.60
2019-02-19T19:41:11.176Z,17.03
2019-02-19T19:43:48.681Z,15.83
2019-02-19T19:46:36.447Z,16.87
2019-02-19T19:49:13.947Z,15.43
2019-02-19T19:51:51.480Z,15.33
2019-02-19T19:54:29.257Z,15.00
2019-02-19T19:57:06.964Z,14.83
2019-02-19T19:59:44.711Z,14.80
2019-02-19T20:02:22.192Z,16.27
2019-02-19T20:05:03.264Z,17.53
2019-02-19T20:07:40.763Z,18.63
2019-02-19T20:10:18.529Z,18.10
2019-02-19T20:12:56.022Z,19.63
2019-02-19T20:15:33.707Z,18.57
2019-02-19T20:18:11.195Z,18.00
2019-02-19T20:20:48.714Z,16.87
2019-02-19T20:23:26.203Z,15.53
2019-02-19T20:26:10.350Z,15.37
2019-02-19T20:28:47.870Z,15.20
2019-02-19T20:31:25.371Z,13.93
2019-02-19T20:34:03.172Z,14.50
2019-02-19T20:36:45.349Z,14.07
2019-02-19T20:39:22.867Z,13.17
2019-02-19T20:42:00.390Z,13.93
2019-02-19T20:44:37.995Z,12.87
2019-02-19T20:47:15.557Z,13.47
2019-02-19T20:49:53.115Z,13.40
2019-02-19T20:52:30.597Z,13.23
2019-02-19T20:55:08.730Z,12.60
2019-02-19T20:57:46.234Z,13.90
2019-02-19T21:00:23.732Z,14.07
2019-02-19T21:03:01.324Z,13.63
2019-02-19T21:05:43.382Z,13.60
2019-02-19T21:08:20.862Z,13.23
2019-02-19T21:10:58.374Z,13.03
2019-02-19T21:13:35.856Z,12.77
2019-02-19T21:16:20.021Z,12.97
2019-02-19T21:18:57.512Z,13.37
2019-02-19T21:21:35.019Z,13.00
2019-02-19T21:24:12.507Z,13.10
2019-02-19T21:26:50.018Z,13.13
2019-02-19T21:29:27.493Z,13.30
2019-02-19T21:32:08.231Z,12.73
2019-02-19T21:34:45.795Z,12.97
2019-02-19T21:37:23.300Z,14.33
2019-02-19T21:40:00.807Z,13.90
2019-02-19T21:42:38.318Z,12.20
2019-02-19T21:45:17.589Z,12.23
2019-02-19T21:47:55.091Z,13.40
2019-02-19T21:50:32.646Z,13.20
2019-02-19T21:53:10.148Z,13.03
2019-02-19T21:55:49.732Z,12.67
2019-02-19T21:58:27.246Z,12.93
2019-02-19T22:01:04.796Z,12.57
2019-02-19T22:03:42.356Z,12.77
2019-02-19T22:06:20.965Z,12.87
2019-02-19T22:08:58.434Z,12.40
2019-02-19T22:11:35.967Z,13.53
2019-02-19T22:14:13.590Z,12.70
2019-02-19T22:16:51.103Z,12.80
2019-02-19T22:19:28.651Z,12.53
2019-02-19T22:22:10.256Z,13.30
2019-02-19T22:24:47.865Z,12.33
2019-02-19T22:27:25.390Z,12.80
2019-02-19T22:30:02.903Z,12.43
2019-02-19T22:32:40.424Z,13.30
2019-02-19T22:35:39.688Z,13.87
2019-02-19T22:38:17.186Z,12.90
2019-02-19T22:40:55.421Z,13.40
2019-02-19T22:43:32.235Z,12.63
2019-02-19T22:46:23.058Z,12.37
2019-02-19T22:49:00.552Z,12.63
2019-02-19T22:51:38.085Z,13.67
2019-02-19T22:54:40.324Z,17.67
2019-02-19T22:57:17.845Z,19.63
2019-02-19T22:59:55.335Z,15.57
2019-02-19T23:02:33.796Z,14.07
2019-02-19T23:05:14.541Z,14.40
2019-02-19T23:07:55.922Z,14.97
2019-02-19T23:10:33.361Z,12.80
2019-02-19T23:13:10.912Z,14.33
2019-02-19T23:15:48.489Z,13.60
2019-02-19T23:18:26.019Z,13.43
2019-02-19T23:21:03.548Z,14.43
2019-02-19T23:23:41.047Z,13.93
2019-02-19T23:26:18.592Z,13.67
2019-02-19T23:28:56.109Z,14.67
2019-02-19T23:31:33.631Z,12.83
2019-02-19T23:34:11.235Z,13.53
2019-02-19T23:37:07.396Z,13.33
2019-02-19T23:39:44.894Z,13.33
2019-02-19T23:42:22.431Z,13.53
2019-02-19T23:45:00.031Z,13.17
2019-02-19T23:47:37.564Z,13.90
2019-02-19T23:50:15.052Z,13.70
2019-02-19T23:52:52.568Z,14.07
2019-02-19T23:55:43.522Z,14.57
2019-02-19T23:58:22.261Z,14.23
